Time;durP1;ratioP1;P1;durP2;ratioP2;P2;SDS_P1;SDS_P2;PMS_P1;PMS_P2;Temp;Humidity;BMP_temperature;BMP_pressure;BME280_temperature;BME280_humidity;BME280_pressure;Samples;Min_cycle;Max_cycle;Signal;HPM_P1;HPM_P2
2022/10/26 00:01:29;;;;;;;0.70;0.60;;;10.60;99.90;;;;;;4897302;29;20068;-84
2022/10/26 00:03:55;;;;;;;0.60;0.60;;;10.40;99.90;;;;;;4865900;29;20496;-84
2022/10/26 00:06:29;;;;;;;1.45;0.80;;;10.40;99.90;;;;;;4903515;29;20048;-84
2022/10/26 00:08:56;;;;;;;0.80;0.80;;;10.90;99.90;;;;;;4907651;29;20052;-83
2022/10/26 00:11:22;;;;;;;0.90;0.70;;;10.50;99.90;;;;;;4890920;29;20048;-84
2022/10/26 00:13:48;;;;;;;1.52;0.90;;;10.90;99.90;;;;;;4901416;29;20080;-83
2022/10/26 00:16:21;;;;;;;1.42;0.93;;;10.90;99.90;;;;;;4896936;29;20161;-83
2022/10/26 00:18:47;;;;;;;0.70;0.70;;;10.40;99.90;;;;;;4899681;29;20055;-83
2022/10/26 00:21:14;;;;;;;0.93;0.88;;;10.70;99.90;;;;;;4911895;29;20079;-83
2022/10/26 00:23:40;;;;;;;0.95;0.80;;;10.90;99.90;;;;;;4904935;29;20063;-85
2022/10/26 00:26:06;;;;;;;1.95;0.80;;;10.40;99.90;;;;;;4897489;29;20044;-85
2022/10/26 00:28:32;;;;;;;1.05;0.80;;;10.90;99.90;;;;;;4900983;29;20489;-85
2022/10/26 00:31:03;;;;;;;1.63;0.90;;;10.70;99.90;;;;;;4884918;29;20114;-84
2022/10/26 00:33:29;;;;;;;0.90;0.77;;;10.50;99.90;;;;;;4899202;29;20048;-85
2022/10/26 00:35:55;;;;;;;0.63;0.60;;;10.60;99.90;;;;;;4869003;29;20438;-85
2022/10/26 00:38:21;;;;;;;1.10;0.80;;;10.30;99.90;;;;;;4883291;29;20040;-85
2022/10/26 00:40:47;;;;;;;1.00;0.70;;;10.40;99.90;;;;;;4888499;29;20407;-83
2022/10/26 00:43:19;;;;;;;1.27;0.70;;;10.40;99.90;;;;;;4902267;29;20091;-81
2022/10/26 00:45:46;;;;;;;0.50;0.50;;;10.80;99.90;;;;;;4895008;29;20129;-82
2022/10/26 00:48:37;;;;;;;0.73;0.73;;;10.60;99.90;;;;;;4863782;29;20041;-84
2022/10/26 00:51:07;;;;;;;0.80;0.80;;;10.50;99.90;;;;;;4884931;29;20044;-83
2022/10/26 00:53:33;;;;;;;0.77;0.60;;;10.50;99.90;;;;;;4896499;29;20079;-83
2022/10/26 00:55:59;;;;;;;1.30;1.00;;;10.30;99.90;;;;;;4894893;29;20080;-83
2022/10/26 00:58:25;;;;;;;1.15;0.82;;;10.80;99.90;;;;;;4899696;29;20044;-83
2022/10/26 01:00:52;;;;;;;1.10;1.00;;;10.60;99.90;;;;;;4881343;29;20552;-84
2022/10/26 01:03:19;;;;;;;1.20;1.00;;;10.80;99.90;;;;;;4896118;29;20064;-83
2022/10/26 01:05:46;;;;;;;0.90;0.90;;;10.30;99.90;;;;;;4887600;29;20052;-84
2022/10/26 01:08:14;;;;;;;1.38;0.85;;;10.70;99.90;;;;;;4865295;29;20053;-84
2022/10/26 01:10:41;;;;;;;1.13;0.93;;;10.70;99.90;;;;;;4897918;29;20051;-84
2022/10/26 01:13:08;;;;;;;1.20;0.80;;;10.30;99.90;;;;;;4880444;29;20487;-84
2022/10/26 01:16:00;;;;;;;1.23;0.88;;;10.80;99.90;;;;;;4898123;29;20083;-84
2022/10/26 01:18:46;;;;;;;1.20;1.00;;;10.60;99.90;;;;;;4897313;29;20090;-84
2022/10/26 01:21:26;;;;;;;1.30;1.10;;;10.20;99.90;;;;;;4891016;29;20120;-84
2022/10/26 01:24:17;;;;;;;1.13;0.88;;;10.50;99.90;;;;;;4917130;29;20044;-83
2022/10/26 01:27:10;;;;;;;1.27;1.08;;;10.60;99.90;;;;;;4896598;29;20103;-84
2022/10/26 01:30:13;;;;;;;1.60;0.98;;;10.70;99.90;;;;;;4912451;29;20048;-84
2022/10/26 01:32:51;;;;;;;1.55;1.25;;;10.10;99.90;;;;;;4898325;29;20051;-84
2022/10/26 01:35:50;;;;;;;1.23;1.13;;;10.40;99.90;;;;;;4912302;29;20068;-83
2022/10/26 01:38:46;;;;;;;0.93;0.88;;;10.10;99.90;;;;;;4894391;29;20123;-83
2022/10/26 01:41:16;;;;;;;2.15;1.17;;;10.60;99.90;;;;;;4895814;29;20244;-83
2022/10/26 01:44:03;;;;;;;1.25;1.05;;;10.00;99.90;;;;;;4898592;29;20044;-83
2022/10/26 01:46:40;;;;;;;;;;;10.30;99.90;;;;;;4883259;29;20044;-84
2022/10/26 01:49:10;;;;;;;2.45;1.33;;;10.00;99.90;;;;;;4912320;29;19927;-83
2022/10/26 01:51:39;;;;;;;1.50;1.30;;;10.20;99.90;;;;;;4895627;29;20048;-84
2022/10/26 01:54:04;;;;;;;2.05;1.63;;;10.50;99.90;;;;;;4918964;29;20048;-84
2022/10/26 01:56:37;;;;;;;1.98;1.50;;;9.90;99.90;;;;;;4913301;29;20067;-84
2022/10/26 01:59:36;;;;;;;2.03;1.30;;;10.00;99.90;;;;;;4892142;29;20412;-83
2022/10/26 02:02:25;;;;;;;1.70;1.45;;;10.00;99.90;;;;;;4897923;29;20108;-83
2022/10/26 02:05:15;;;;;;;1.50;1.20;;;9.90;99.90;;;;;;4890886;29;20040;-83
2022/10/26 02:08:27;;;;;;;1.60;1.30;;;9.80;99.90;;;;;;4895016;29;20063;-84
2022/10/26 02:11:24;;;;;;;1.98;1.27;;;9.80;99.90;;;;;;4911364;29;20047;-83
2022/10/26 02:14:17;;;;;;;2.03;1.58;;;10.20;99.90;;;;;;4895660;29;20196;-83
2022/10/26 02:16:55;;;;;;;1.95;1.40;;;10.30;99.90;;;;;;4878940;29;20048;-83
2022/10/26 02:19:33;;;;;;;2.17;1.30;;;9.90;99.90;;;;;;4896823;29;20067;-83
2022/10/26 02:22:22;;;;;;;2.78;1.60;;;9.70;99.90;;;;;;4895345;29;20520;-82
2022/10/26 02:24:51;;;;;;;1.90;1.30;;;9.70;99.90;;;;;;4894690;29;20153;-83
2022/10/26 02:27:22;;;;;;;2.28;1.55;;;10.30;99.90;;;;;;4894573;29;20048;-75
2022/10/26 02:29:49;;;;;;;1.67;1.40;;;9.60;99.90;;;;;;4892362;29;20040;-75
2022/10/26 02:32:17;;;;;;;1.52;1.20;;;10.00;99.90;;;;;;4877519;29;20076;-75
2022/10/26 02:34:46;;;;;;;1.33;1.20;;;9.60;99.90;;;;;;4891645;29;20496;-75
2022/10/26 02:37:18;;;;;;;1.25;1.02;;;9.60;99.90;;;;;;4883436;29;20059;-75
2022/10/26 02:39:47;;;;;;;1.55;1.20;;;10.10;99.90;;;;;;4878135;29;20071;-75
2022/10/26 02:42:14;;;;;;;1.20;1.10;;;9.60;99.90;;;;;;4894369;29;20492;-75
2022/10/26 02:45:05;;;;;;;1.13;1.00;;;9.90;99.90;;;;;;4891584;29;20040;-75
2022/10/26 02:47:32;;;;;;;2.67;1.50;;;9.90;99.90;;;;;;4882136;29;20051;-75
2022/10/26 02:49:58;;;;;;;2.05;1.30;;;9.40;99.90;;;;;;4879886;29;20475;-75
2022/10/26 02:52:30;;;;;;;;;;;10.00;99.90;;;;;;4897289;29;20492;-74
2022/10/26 02:55:03;;;;;;;1.88;1.25;;;9.80;99.90;;;;;;4898643;29;19919;-75
2022/10/26 02:57:38;;;;;;;2.15;1.20;;;9.30;99.90;;;;;;4897803;29;20095;-75
2022/10/26 03:00:13;;;;;;;2.97;1.70;;;9.80;99.90;;;;;;4908081;29;20361;-75
2022/10/26 03:02:41;;;;;;;2.38;1.30;;;9.80;99.90;;;;;;4916362;29;20464;-75
2022/10/26 03:05:18;;;;;;;1.15;1.05;;;9.30;99.90;;;;;;4908770;29;20123;-75
2022/10/26 03:07:44;;;;;;;1.92;1.42;;;9.70;99.90;;;;;;4909318;29;20503;-75
2022/10/26 03:10:10;;;;;;;1.52;1.17;;;9.80;99.90;;;;;;4897056;29;20036;-75
2022/10/26 03:12:36;;;;;;;1.67;1.30;;;9.70;99.90;;;;;;4898428;29;20411;-75
2022/10/26 03:15:02;;;;;;;1.90;1.55;;;9.30;99.90;;;;;;4897436;29;20052;-83
2022/10/26 03:17:28;;;;;;;;;;;9.10;99.90;;;;;;4902986;29;20048;-84
2022/10/26 03:19:54;;;;;;;2.10;1.90;;;9.50;99.90;;;;;;4899376;29;19923;-84
2022/10/26 03:22:20;;;;;;;2.15;1.50;;;9.10;99.90;;;;;;4914996;29;20056;-84
2022/10/26 03:24:46;;;;;;;2.85;2.60;;;9.50;99.90;;;;;;4903594;29;20056;-83
2022/10/26 03:27:12;;;;;;;3.58;2.28;;;9.70;99.90;;;;;;4866171;29;20051;-83
2022/10/26 03:29:38;;;;;;;2.80;1.98;;;9.10;99.90;;;;;;4897131;29;20467;-83
2022/10/26 03:32:04;;;;;;;2.55;1.90;;;9.50;99.90;;;;;;4882898;29;20159;-83
2022/10/26 03:34:29;;;;;;;3.78;2.40;;;9.70;99.90;;;;;;4869580;29;20479;-83
2022/10/26 03:36:55;;;;;;;3.10;2.10;;;9.60;99.90;;;;;;4882519;29;20075;-84
2022/10/26 03:39:21;;;;;;;2.35;2.00;;;9.80;99.90;;;;;;4864778;29;20047;-83
2022/10/26 03:41:46;;;;;;;2.47;2.20;;;9.80;99.90;;;;;;4888050;29;20055;-84
2022/10/26 03:44:12;;;;;;;3.17;2.20;;;9.80;99.90;;;;;;4864828;29;20056;-83
2022/10/26 03:46:38;;;;;;;3.72;2.60;;;9.60;99.90;;;;;;4899600;29;20159;-82
2022/10/26 03:49:04;;;;;;;2.38;1.85;;;9.20;99.90;;;;;;4899490;29;20476;-84
2022/10/26 03:51:30;;;;;;;2.45;2.10;;;9.50;99.90;;;;;;4918818;29;20051;-84
2022/10/26 03:53:56;;;;;;;3.55;2.88;;;9.50;99.90;;;;;;4907546;29;20159;-83
2022/10/26 03:56:21;;;;;;;2.67;2.30;;;9.60;99.90;;;;;;4896294;29;20496;-84
2022/10/26 03:58:47;;;;;;;2.35;1.80;;;9.70;99.90;;;;;;4881570;29;20092;-84
2022/10/26 04:01:13;;;;;;;3.70;2.60;;;9.10;99.90;;;;;;4901873;29;20130;-84
2022/10/26 04:03:38;;;;;;;4.10;2.63;;;9.40;99.90;;;;;;4880095;29;20522;-84
2022/10/26 04:06:04;;;;;;;5.25;3.47;;;9.30;99.90;;;;;;4883635;29;20048;-83
2022/10/26 04:08:30;;;;;;;4.60;3.30;;;9.60;99.90;;;;;;4900891;29;20524;-83
2022/10/26 04:10:56;;;;;;;5.07;3.00;;;9.40;99.90;;;;;;4899249;29;20119;-83
2022/10/26 04:13:21;;;;;;;4.32;3.05;;;9.10;99.90;;;;;;4878097;29;20068;-83
2022/10/26 04:15:47;;;;;;;3.53;2.70;;;9.40;99.90;;;;;;4895081;29;20039;-83
2022/10/26 04:18:13;;;;;;;4.05;2.90;;;9.30;99.90;;;;;;4903630;29;20222;-83
2022/10/26 04:20:41;;;;;;;3.17;2.67;;;9.20;99.90;;;;;;4898944;29;20051;-83
2022/10/26 04:23:10;;;;;;;4.00;2.80;;;9.30;99.90;;;;;;4882332;29;20050;-83
2022/10/26 04:25:36;;;;;;;2.92;2.50;;;9.70;99.90;;;;;;4913252;29;20096;-83
2022/10/26 04:28:03;;;;;;;3.47;2.58;;;9.70;99.90;;;;;;4897875;29;20399;-83
2022/10/26 04:30:30;;;;;;;4.57;3.33;;;9.70;99.90;;;;;;4893975;29;20341;-82
2022/10/26 04:32:56;;;;;;;3.97;3.28;;;9.30;99.90;;;;;;4910107;29;20036;-83
2022/10/26 04:35:22;;;;;;;4.20;2.90;;;9.80;99.90;;;;;;4903822;29;20039;-82
2022/10/26 04:37:48;;;;;;;3.53;2.72;;;9.50;99.90;;;;;;4898381;29;20500;-82
2022/10/26 04:40:13;;;;;;;2.55;2.33;;;9.70;99.90;;;;;;4920593;29;20040;-83
2022/10/26 04:42:41;;;;;;;4.53;3.13;;;9.20;99.90;;;;;;4922257;29;20131;-84
2022/10/26 04:45:07;;;;;;;3.22;2.65;;;9.50;99.90;;;;;;4914628;29;20190;-82
2022/10/26 04:47:33;;;;;;;;;;;9.80;99.90;;;;;;4879179;29;20544;-82
2022/10/26 04:49:58;;;;;;;4.63;2.70;;;9.90;99.90;;;;;;4895552;29;19919;-81
2022/10/26 04:52:24;;;;;;;3.22;2.47;;;9.50;99.90;;;;;;4910516;29;20514;-82
2022/10/26 04:54:49;;;;;;;5.03;3.05;;;9.60;99.90;;;;;;4879228;29;20496;-74
2022/10/26 04:57:15;;;;;;;3.17;2.88;;;10.00;99.90;;;;;;4915354;29;20159;-74
2022/10/26 04:59:41;;;;;;;4.00;3.20;;;9.40;99.90;;;;;;4906642;29;20502;-74
2022/10/26 05:02:06;;;;;;;3.70;3.20;;;10.00;99.90;;;;;;4891454;29;20048;-74
2022/10/26 05:04:32;;;;;;;3.50;2.80;;;9.80;99.90;;;;;;4896058;29;20052;-74
2022/10/26 05:06:58;;;;;;;3.75;3.00;;;9.50;99.90;;;;;;4876854;29;20123;-74
2022/10/26 05:09:23;;;;;;;5.30;3.40;;;10.20;99.90;;;;;;4892333;29;20432;-74
2022/10/26 05:11:49;;;;;;;5.57;3.90;;;9.70;99.90;;;;;;4898985;29;20381;-73
2022/10/26 05:14:15;;;;;;;5.00;3.55;;;10.00;99.90;;;;;;4881009;29;20052;-73
2022/10/26 05:16:40;;;;;;;4.47;3.67;;;10.20;99.90;;;;;;4906407;29;20666;-73
2022/10/26 05:19:06;;;;;;;5.50;4.53;;;9.80;99.90;;;;;;4909675;29;20403;-75
2022/10/26 05:21:31;;;;;;;6.63;5.47;;;10.10;99.90;;;;;;4889378;29;20063;-76
2022/10/26 05:23:57;;;;;;;5.68;4.68;;;10.30;99.90;;;;;;4893092;29;20044;-75
2022/10/26 05:26:23;;;;;;;6.78;4.88;;;10.10;99.90;;;;;;4891887;29;21740;-75
2022/10/26 05:28:50;;;;;;;;;;;10.00;99.90;;;;;;4861237;29;20044;-76
2022/10/26 05:31:15;;;;;;;5.40;4.22;;;10.20;99.90;;;;;;4891931;29;19923;-73
2022/10/26 05:33:41;;;;;;;4.90;4.13;;;9.80;99.90;;;;;;4892248;29;20441;-72
2022/10/26 05:36:07;;;;;;;5.60;4.70;;;10.10;99.90;;;;;;4875829;29;20127;-73
2022/10/26 05:38:33;;;;;;;6.50;4.65;;;10.40;99.90;;;;;;4889776;29;20045;-79
2022/10/26 05:41:00;;;;;;;5.78;4.63;;;9.80;99.90;;;;;;4890815;29;20044;-79
2022/10/26 05:43:26;;;;;;;5.32;4.20;;;10.40;99.90;;;;;;4890813;29;20449;-80
2022/10/26 05:45:53;;;;;;;7.07;5.63;;;9.90;99.90;;;;;;4891120;29;20055;-80
2022/10/26 05:48:20;;;;;;;8.23;5.82;;;10.40;99.90;;;;;;4885186;29;20049;-79
2022/10/26 05:50:45;;;;;;;7.47;5.75;;;9.90;99.90;;;;;;4902416;29;20045;-79
2022/10/26 05:53:11;;;;;;;7.00;4.95;;;10.30;99.90;;;;;;4873781;29;20060;-79
2022/10/26 05:55:37;;;;;;;5.82;4.75;;;9.90;99.90;;;;;;4889785;29;20132;-79
2022/10/26 05:58:03;;;;;;;5.30;4.18;;;10.10;99.90;;;;;;4890826;29;20131;-79
2022/10/26 06:00:29;;;;;;;4.90;3.97;;;10.00;99.90;;;;;;4892047;29;20041;-80
2022/10/26 06:03:15;;;;;;;5.53;4.20;;;9.90;99.90;;;;;;4923701;29;20049;-80
2022/10/26 06:05:55;;;;;;;5.63;4.20;;;10.40;99.90;;;;;;4906291;29;20524;-79
2022/10/26 06:08:23;;;;;;;7.57;4.55;;;10.40;99.90;;;;;;4902593;29;20056;-84
2022/10/26 06:10:49;;;;;;;4.65;4.22;;;10.10;99.90;;;;;;4879791;29;20140;-83
2022/10/26 06:13:15;;;;;;;;;;;10.30;99.90;;;;;;4896515;29;20170;-84
2022/10/26 06:15:57;;;;;;;5.78;3.95;;;10.20;99.90;;;;;;4884455;29;20457;-84
2022/10/26 06:19:20;;;;;;;4.68;3.72;;;10.00;99.90;;;;;;4916031;29;20059;-84
2022/10/26 06:22:14;;;;;;;6.75;5.30;;;10.60;99.90;;;;;;4826902;29;20172;-84
2022/10/26 06:24:57;;;;;;;7.43;6.00;;;10.20;99.90;;;;;;4915075;29;20041;-83
2022/10/26 06:27:46;;;;;;;5.82;4.60;;;10.00;99.90;;;;;;4915635;29;20040;-84
2022/10/26 06:30:12;;;;;;;6.28;4.35;;;10.60;99.90;;;;;;4913900;29;20056;-84
2022/10/26 06:32:45;;;;;;;4.45;3.83;;;10.20;99.90;;;;;;4898448;29;20048;-84
2022/10/26 06:35:20;;;;;;;4.38;3.55;;;10.00;99.90;;;;;;4899068;29;20052;-84
2022/10/26 06:37:48;;;;;;;6.00;4.65;;;10.50;99.90;;;;;;4898444;29;20048;-85
2022/10/26 06:40:15;;;;;;;4.95;3.95;;;10.60;99.90;;;;;;4882757;29;20055;-84
2022/10/26 06:42:41;;;;;;;6.10;4.30;;;10.10;99.90;;;;;;4896961;29;20071;-84
2022/10/26 06:45:15;;;;;;;4.50;3.95;;;10.10;99.90;;;;;;4896885;29;20064;-84
2022/10/26 06:47:48;;;;;;;5.38;3.97;;;10.50;99.90;;;;;;4897293;29;20109;-84
2022/10/26 06:50:33;;;;;;;5.80;4.13;;;10.20;99.90;;;;;;4897161;29;20040;-85
2022/10/26 06:53:27;;;;;;;5.25;4.00;;;10.70;99.90;;;;;;4896419;29;20506;-85
2022/10/26 06:55:56;;;;;;;5.95;4.47;;;10.10;99.90;;;;;;4896980;29;20108;-84
2022/10/26 06:58:26;;;;;;;9.38;5.03;;;10.50;99.90;;;;;;4897431;29;20044;-85
2022/10/26 07:00:53;;;;;;;6.38;4.88;;;10.50;99.90;;;;;;4898032;29;20115;-85
2022/10/26 07:03:20;;;;;;;6.18;4.95;;;10.70;99.90;;;;;;4897414;29;20052;-85
2022/10/26 07:05:46;;;;;;;5.40;4.70;;;10.30;99.90;;;;;;4897791;29;20052;-84
2022/10/26 07:08:11;;;;;;;4.30;3.90;;;10.80;99.90;;;;;;4898837;29;20048;-84
2022/10/26 07:10:38;;;;;;;7.05;5.38;;;10.80;99.90;;;;;;4882624;29;20036;-83
2022/10/26 07:13:05;;;;;;;6.82;4.55;;;10.90;99.90;;;;;;4897380;29;20080;-85
2022/10/26 07:15:32;;;;;;;4.70;3.90;;;11.00;99.90;;;;;;4882354;29;20461;-85
2022/10/26 07:17:57;;;;;;;4.90;4.40;;;10.90;99.90;;;;;;4897767;29;20115;-84
2022/10/26 07:20:23;;;;;;;4.85;3.97;;;10.70;99.90;;;;;;4897273;29;20056;-84
2022/10/26 07:22:53;;;;;;;4.35;3.83;;;10.60;99.90;;;;;;4895932;29;20096;-84
2022/10/26 07:25:20;;;;;;;5.30;4.20;;;11.20;99.90;;;;;;4896279;29;20466;-84
2022/10/26 07:27:46;;;;;;;6.05;4.00;;;10.80;99.90;;;;;;4896697;29;20045;-84
2022/10/26 07:30:12;;;;;;;5.25;4.63;;;10.90;99.90;;;;;;4896064;29;20051;-84
2022/10/26 07:32:37;;;;;;;4.90;3.60;;;10.90;99.90;;;;;;4896817;29;20045;-84
2022/10/26 07:35:03;;;;;;;5.10;4.00;;;11.10;99.90;;;;;;4897548;29;20092;-85
2022/10/26 07:37:29;;;;;;;5.35;3.42;;;10.90;99.90;;;;;;4881740;29;20052;-85
2022/10/26 07:39:55;;;;;;;4.80;4.13;;;11.40;99.90;;;;;;4882081;29;20059;-84
2022/10/26 07:42:21;;;;;;;3.45;2.97;;;11.50;99.90;;;;;;4881869;29;20092;-84
2022/10/26 07:44:47;;;;;;;5.45;4.10;;;11.50;99.90;;;;;;4897402;29;20041;-84
2022/10/26 07:47:12;;;;;;;4.13;2.88;;;11.10;99.90;;;;;;4897183;29;20483;-83
2022/10/26 07:49:38;;;;;;;3.63;2.97;;;11.40;99.90;;;;;;4896508;29;20044;-84
2022/10/26 07:52:04;;;;;;;5.38;3.70;;;11.40;99.90;;;;;;4866088;29;20041;-85
2022/10/26 07:54:31;;;;;;;6.05;4.13;;;11.60;99.90;;;;;;4881520;29;20053;-84
2022/10/26 07:56:57;;;;;;;5.03;4.07;;;11.60;99.90;;;;;;4881517;29;20074;-84
2022/10/26 07:59:22;;;;;;;4.80;3.10;;;11.40;99.90;;;;;;4913038;29;20412;-84
2022/10/26 08:01:48;;;;;;;4.25;3.60;;;11.60;99.90;;;;;;4896161;29;20072;-85
2022/10/26 08:04:14;;;;;;;4.15;2.95;;;11.50;99.90;;;;;;4880973;29;20063;-84
2022/10/26 08:06:40;;;;;;;3.67;2.72;;;11.60;99.90;;;;;;4896707;29;20214;-84
2022/10/26 08:09:06;;;;;;;4.18;2.97;;;11.90;99.90;;;;;;4874049;29;20112;-84
2022/10/26 08:11:31;;;;;;;3.30;2.30;;;11.70;99.90;;;;;;4887899;29;20494;-84
2022/10/26 08:13:57;;;;;;;4.35;3.50;;;12.10;99.90;;;;;;4896609;29;20044;-84
2022/10/26 08:16:23;;;;;;;4.30;3.42;;;12.00;99.90;;;;;;4880745;29;20091;-82
2022/10/26 08:18:52;;;;;;;5.00;3.63;;;12.10;99.90;;;;;;4881918;29;20092;-84
2022/10/26 08:21:17;;;;;;;3.60;3.00;;;11.80;99.90;;;;;;4896272;29;20061;-84
2022/10/26 08:23:43;;;;;;;5.38;2.90;;;12.30;99.90;;;;;;4896199;29;20060;-84
2022/10/26 08:26:12;;;;;;;4.45;2.90;;;12.00;99.90;;;;;;4912219;29;20093;-83
2022/10/26 08:28:38;;;;;;;3.72;2.65;;;12.40;99.90;;;;;;4912035;29;20520;-84
2022/10/26 08:31:05;;;;;;;3.10;2.70;;;12.50;99.90;;;;;;4912077;29;20045;-84
2022/10/26 08:33:31;;;;;;;3.58;2.45;;;12.20;99.90;;;;;;4884685;29;20080;-84
2022/10/26 08:35:58;;;;;;;;;;;12.50;99.90;;;;;;4915622;29;20049;-84
2022/10/26 08:38:24;;;;;;;3.03;2.43;;;12.40;99.90;;;;;;4899852;29;19923;-84
2022/10/26 08:40:50;;;;;;;3.58;2.78;;;12.80;99.90;;;;;;4900072;29;20516;-84
2022/10/26 08:43:54;;;;;;;3.42;2.60;;;12.80;99.90;;;;;;4899150;29;20560;-85
2022/10/26 08:46:35;;;;;;;4.10;2.63;;;13.00;99.90;;;;;;4827772;29;20412;-84
2022/10/26 08:49:23;;;;;;;4.70;3.03;;;12.90;99.90;;;;;;4892769;29;20052;-84
2022/10/26 08:51:51;;;;;;;3.38;2.60;;;12.90;99.90;;;;;;4883383;29;20048;-84
2022/10/26 08:54:29;;;;;;;3.63;2.47;;;13.00;99.90;;;;;;4915148;29;20131;-85
2022/10/26 08:56:59;;;;;;;3.08;2.13;;;13.10;99.90;;;;;;4915111;29;20044;-84
2022/10/26 08:59:35;;;;;;;3.63;2.38;;;13.40;99.90;;;;;;4899166;29;20282;-83
2022/10/26 09:02:01;;;;;;;3.08;1.77;;;13.30;99.90;;;;;;4898630;29;20048;-83
2022/10/26 09:04:28;;;;;;;1.98;1.50;;;13.60;99.90;;;;;;4898538;29;20049;-83
2022/10/26 09:06:59;;;;;;;2.97;1.50;;;13.70;99.90;;;;;;4882829;29;20041;-82
2022/10/26 09:09:45;;;;;;;2.22;1.30;;;13.80;99.90;;;;;;4898507;29;20044;-83
2022/10/26 09:12:26;;;;;;;2.23;1.33;;;13.80;99.90;;;;;;4898857;29;20045;-84
2022/10/26 09:15:07;;;;;;;1.60;1.23;;;13.90;99.90;;;;;;4898790;29;20845;-83
2022/10/26 09:17:50;;;;;;;3.55;1.50;;;14.00;99.90;;;;;;4899127;29;20044;-84
2022/10/26 09:20:28;;;;;;;2.05;1.38;;;14.10;99.90;;;;;;4899767;29;20052;-83
2022/10/26 09:23:01;;;;;;;2.92;1.50;;;14.10;99.90;;;;;;4903321;29;20044;-84
2022/10/26 09:25:37;;;;;;;2.40;1.50;;;14.20;99.90;;;;;;4902595;29;20889;-83
2022/10/26 09:28:04;;;;;;;2.55;1.42;;;14.40;99.90;;;;;;4903009;29;20050;-84
2022/10/26 09:30:31;;;;;;;1.63;1.17;;;14.50;99.90;;;;;;4902341;29;20044;-83
2022/10/26 09:33:09;;;;;;;2.03;1.25;;;14.60;99.90;;;;;;4902108;29;20560;-82
2022/10/26 09:35:48;;;;;;;1.92;1.15;;;14.60;99.90;;;;;;4902002;29;20048;-83
2022/10/26 09:38:39;;;;;;;1.20;0.95;;;14.70;99.90;;;;;;4901126;29;20630;-83
2022/10/26 09:41:08;;;;;;;3.28;1.40;;;14.90;99.90;;;;;;4901868;29;20144;-83
2022/10/26 09:43:37;;;;;;;2.53;1.48;;;14.90;99.90;;;;;;4886117;29;20052;-83
2022/10/26 09:46:03;;;;;;;1.80;1.10;;;14.90;99.90;;;;;;4901231;29;20044;-84
2022/10/26 09:48:55;;;;;;;2.95;1.40;;;15.10;99.90;;;;;;4900860;29;20444;-82
2022/10/26 09:51:22;;;;;;;1.48;1.10;;;15.20;99.90;;;;;;4882333;29;20116;-83
2022/10/26 09:53:49;;;;;;;2.20;1.30;;;15.20;99.90;;;;;;4881905;29;20049;-81
2022/10/26 09:56:16;;;;;;;2.20;1.23;;;15.40;99.90;;;;;;4881892;29;20124;-82
2022/10/26 09:59:11;;;;;;;3.25;1.70;;;15.40;99.90;;;;;;4882139;29;20060;-82
2022/10/26 10:01:37;;;;;;;3.33;1.50;;;15.50;99.90;;;;;;4864613;29;20084;-83
2022/10/26 10:04:12;;;;;;;2.70;1.60;;;15.60;99.90;;;;;;4883273;29;20445;-84
2022/10/26 10:06:45;;;;;;;3.00;1.50;;;15.70;99.90;;;;;;4883415;29;20084;-83
2022/10/26 10:09:14;;;;;;;2.33;1.30;;;15.80;99.90;;;;;;4882373;29;20051;-84
2022/10/26 10:11:44;;;;;;;4.32;1.30;;;15.90;99.90;;;;;;4881576;29;20493;-84
2022/10/26 10:14:16;;;;;;;1.88;1.20;;;16.00;99.90;;;;;;4881283;29;20132;-83
2022/10/26 10:16:59;;;;;;;2.50;1.10;;;16.10;99.90;;;;;;4881639;29;20555;-83
2022/10/26 10:19:29;;;;;;;2.03;1.20;;;16.20;99.90;;;;;;4881388;29;20044;-83
2022/10/26 10:22:00;;;;;;;1.95;1.13;;;16.30;99.90;;;;;;4861503;29;20071;-83
2022/10/26 10:24:28;;;;;;;1.65;1.10;;;16.50;99.90;;;;;;4882041;29;20140;-83
2022/10/26 10:27:13;;;;;;;2.13;1.33;;;16.60;99.90;;;;;;4866259;29;20051;-84
2022/10/26 10:29:41;;;;;;;2.30;1.35;;;16.60;99.90;;;;;;4867201;29;20122;-83
2022/10/26 10:32:14;;;;;;;2.13;1.55;;;16.50;99.90;;;;;;4882154;29;20242;-83
2022/10/26 10:34:40;;;;;;;2.00;1.10;;;16.50;99.90;;;;;;4881839;29;20047;-84
2022/10/26 10:37:18;;;;;;;1.80;1.10;;;16.50;99.90;;;;;;4881352;29;20404;-83
2022/10/26 10:39:44;;;;;;;2.03;1.30;;;16.50;99.90;;;;;;4870195;29;20399;-84
2022/10/26 10:42:19;;;;;;;1.75;1.02;;;16.50;99.90;;;;;;4883949;29;20142;-83
2022/10/26 10:44:49;;;;;;;1.80;1.02;;;16.50;99.90;;;;;;4884617;29;20666;-83
2022/10/26 10:47:21;;;;;;;1.77;0.98;;;16.50;99.90;;;;;;4901080;29;20070;-83
2022/10/26 10:49:54;;;;;;;1.75;1.00;;;16.60;99.90;;;;;;4900633;29;20521;-84
2022/10/26 10:52:31;;;;;;;1.30;0.80;;;16.60;99.90;;;;;;4900922;29;20048;-84
2022/10/26 10:55:19;;;;;;;2.47;1.00;;;16.60;99.90;;;;;;4899455;29;20488;-83
2022/10/26 10:58:19;;;;;;;1.92;0.98;;;16.60;99.90;;;;;;4901237;29;20055;-83
2022/10/26 11:00:47;;;;;;;1.73;1.23;;;16.70;99.90;;;;;;4900783;29;20052;-83
2022/10/26 11:03:40;;;;;;;1.85;1.05;;;16.80;99.90;;;;;;4905310;29;20465;-83
2022/10/26 11:06:12;;;;;;;2.30;1.60;;;16.80;99.90;;;;;;4913953;29;20131;-81
2022/10/26 11:08:49;;;;;;;4.68;1.70;;;17.00;99.90;;;;;;4914343;29;20048;-82
2022/10/26 11:11:21;;;;;;;2.38;1.20;;;17.10;99.90;;;;;;4899051;29;20495;-83
2022/10/26 11:14:18;;;;;;;1.65;1.10;;;17.30;99.90;;;;;;4914936;29;20051;-84
2022/10/26 11:17:10;;;;;;;1.25;0.90;;;17.40;99.90;;;;;;4899122;29;20056;-84
2022/10/26 11:19:45;;;;;;;1.70;1.13;;;17.80;99.90;;;;;;4911481;29;20134;-84
2022/10/26 11:22:15;;;;;;;1.50;1.02;;;18.00;99.90;;;;;;4914559;29;20095;-84
2022/10/26 11:24:48;;;;;;;2.38;1.40;;;18.10;99.90;;;;;;4914631;29;20048;-84
2022/10/26 11:27:23;;;;;;;2.50;1.00;;;18.30;99.90;;;;;;4914350;29;20046;-84
2022/10/26 11:30:12;;;;;;;1.90;1.35;;;18.30;99.90;;;;;;4895586;29;20040;-84
2022/10/26 11:32:46;;;;;;;2.17;1.00;;;18.30;99.90;;;;;;4895413;29;20051;-84
2022/10/26 11:35:12;;;;;;;2.25;1.20;;;18.30;99.90;;;;;;4895274;29;20052;-84
2022/10/26 11:37:44;;;;;;;;;;;18.40;99.90;;;;;;4895736;29;20041;-84
2022/10/26 11:40:15;;;;;;;2.42;1.40;;;18.50;99.90;;;;;;4895310;29;19930;-83
2022/10/26 11:43:19;;;;;;;1.85;1.10;;;18.70;99.90;;;;;;4895490;29;20051;-84
2022/10/26 11:46:01;;;;;;;1.50;0.77;;;19.00;99.90;;;;;;4858767;29;20087;-84
2022/10/26 11:48:59;;;;;;;3.47;1.15;;;19.40;99.90;;;;;;4879718;29;20059;-83
2022/10/26 11:51:30;;;;;;;;;;;19.70;99.90;;;;;;4880258;29;20084;-85
2022/10/26 11:54:03;;;;;;;3.03;1.35;;;19.80;99.90;;;;;;4896186;29;19930;-83
2022/10/26 11:56:38;;;;;;;1.67;0.88;;;19.80;99.90;;;;;;4898487;29;20167;-83
2022/10/26 11:59:08;;;;;;;1.38;0.90;;;20.00;99.90;;;;;;4905920;29;20080;-82
2022/10/26 12:01:34;;;;;;;3.13;1.00;;;20.30;99.90;;;;;;4912346;29;20048;-84
2022/10/26 12:04:00;;;;;;;;;;;20.50;99.90;;;;;;4891114;29;20519;-84
2022/10/26 12:06:30;;;;;;;2.13;1.08;;;20.40;99.90;;;;;;4882515;29;19918;-84
2022/10/26 12:09:05;;;;;;;1.40;0.80;;;20.40;99.90;;;;;;4899011;29;20052;-83
2022/10/26 12:11:54;;;;;;;1.92;1.10;;;20.50;99.90;;;;;;4906591;29;20075;-85
2022/10/26 12:14:29;;;;;;;1.85;0.90;;;20.50;99.90;;;;;;4882250;29;20400;-82
2022/10/26 12:17:14;;;;;;;3.55;1.27;;;20.40;99.90;;;;;;4897438;29;20043;-83
2022/10/26 12:20:03;;;;;;;1.05;0.77;;;20.10;99.90;;;;;;4900121;29;20052;-83
2022/10/26 12:22:35;;;;;;;1.98;0.70;;;19.80;99.90;;;;;;4909309;29;20054;-82
2022/10/26 12:25:20;;;;;;;2.03;1.00;;;19.60;99.90;;;;;;4880119;29;20108;-85
2022/10/26 12:27:46;;;;;;;3.10;1.00;;;19.50;99.90;;;;;;4898236;29;20420;-85
2022/10/26 12:30:17;;;;;;;;;;;19.60;99.90;;;;;;4898832;29;20044;-85
2022/10/26 12:32:43;;;;;;;2.58;1.20;;;19.70;99.90;;;;;;4914931;29;20022;-86
2022/10/26 12:35:27;;;;;;;;;;;19.80;99.90;;;;;;4898805;29;20154;-85
2022/10/26 12:37:53;;;;;;;2.67;1.30;;;20.00;99.90;;;;;;4898651;29;19923;-84
2022/10/26 12:40:37;;;;;;;;;;;19.80;99.90;;;;;;4883722;29;20051;-85
2022/10/26 12:43:15;;;;;;;3.50;1.40;;;19.70;99.90;;;;;;4914238;29;20391;-85
2022/10/26 12:45:42;;;;;;;3.92;1.80;;;19.40;99.90;;;;;;4883261;29;20088;-84
2022/10/26 12:48:44;;;;;;;3.72;1.63;;;19.10;99.90;;;;;;4898677;29;20480;-83
2022/10/26 12:51:33;;;;;;;4.00;1.55;;;18.90;99.90;;;;;;4898632;29;20052;-84
2022/10/26 12:54:43;;;;;;;2.90;1.50;;;18.70;99.90;;;;;;4880522;29;20051;-84
2022/10/26 12:57:29;;;;;;;3.83;1.95;;;18.60;99.90;;;;;;4882966;29;20041;-83
2022/10/26 13:00:05;;;;;;;4.22;1.50;;;18.60;99.90;;;;;;4897939;29;20060;-86
2022/10/26 13:02:58;;;;;;;2.17;1.27;;;18.60;99.90;;;;;;4898771;29;20485;-87
2022/10/26 13:05:56;;;;;;;2.95;1.48;;;18.80;99.90;;;;;;4882955;29;20044;-85
2022/10/26 13:08:21;;;;;;;;;;;18.90;99.90;;;;;;4899759;29;20079;-84
2022/10/26 13:11:06;;;;;;;2.72;1.30;;;19.20;99.90;;;;;;4914543;29;20629;-85
2022/10/26 13:13:34;;;;;;;2.08;1.35;;;19.20;99.90;;;;;;4898653;29;20052;-85
2022/10/26 13:16:01;;;;;;;1.67;1.17;;;19.20;99.90;;;;;;4898474;29;20047;-85
2022/10/26 13:18:28;;;;;;;3.22;1.23;;;19.20;99.90;;;;;;4885256;29;20047;-83
2022/10/26 13:21:12;;;;;;;4.40;1.45;;;19.10;99.90;;;;;;4902013;29;20048;-85